createdAt,value
2019-01-14T00:04:56.941Z,86.59
2019-01-14T00:10:03.399Z,86.67
2019-01-14T00:15:10.779Z,88.28
2019-01-14T00:20:15.948Z,88.94
2019-01-14T00:25:21.071Z,89.69
2019-01-14T00:30:26.070Z,90.03
2019-01-14T00:35:31.376Z,89.59
2019-01-14T00:40:36.366Z,88.73
2019-01-14T00:45:41.422Z,88.87
2019-01-14T00:50:46.910Z,89.03
2019-01-14T00:55:51.958Z,88.84
2019-01-14T01:00:57.072Z,87.92
2019-01-14T01:06:02.114Z,87.18
2019-01-14T01:11:07.591Z,87.20
2019-01-14T01:16:12.658Z,87.31
2019-01-14T01:21:17.731Z,87.70
2019-01-14T01:26:23.004Z,87.55
2019-01-14T01:31:28.290Z,86.57
2019-01-14T01:36:33.392Z,86.35
2019-01-14T01:41:38.410Z,84.85
2019-01-14T01:46:43.451Z,84.27
2019-01-14T01:51:48.542Z,83.79
2019-01-14T01:56:53.633Z,83.93
2019-01-14T02:01:58.998Z,84.54
2019-01-14T02:07:04.057Z,85.19
2019-01-14T02:12:09.520Z,85.10
2019-01-14T02:17:14.726Z,85.69
2019-01-14T02:22:19.744Z,85.58
2019-01-14T02:27:24.759Z,85.63
2019-01-14T02:32:29.906Z,83.92
2019-01-14T02:37:34.938Z,82.36
2019-01-14T02:42:40.000Z,81.44
2019-01-14T02:47:44.992Z,81.20
2019-01-14T02:52:50.100Z,80.06
2019-01-14T02:57:55.114Z,79.69
2019-01-14T03:03:00.456Z,80.55
2019-01-14T03:08:05.795Z,80.92
2019-01-14T03:13:10.779Z,80.96
2019-01-14T03:18:15.888Z,80.15
2019-01-14T03:23:20.924Z,78.53
2019-01-14T03:28:26.047Z,77.63
2019-01-14T03:33:31.110Z,76.36
2019-01-14T03:38:36.156Z,75.80
2019-01-14T03:43:41.167Z,74.27
2019-01-14T03:48:46.166Z,73.46
2019-01-14T03:53:51.250Z,73.82
2019-01-14T03:58:56.257Z,74.24
2019-01-14T04:04:01.260Z,74.84
2019-01-14T04:09:07.776Z,75.89
2019-01-14T04:14:12.744Z,76.80
2019-01-14T04:19:18.064Z,76.43
2019-01-14T04:24:23.422Z,75.66
2019-01-14T04:29:28.968Z,74.43
2019-01-14T04:34:35.494Z,74.93
2019-01-14T04:39:40.733Z,75.20
2019-01-14T04:44:49.034Z,75.47
2019-01-14T04:49:59.336Z,75.68
2019-01-14T04:55:06.335Z,75.57
2019-01-14T05:00:14.524Z,75.65
2019-01-14T05:05:19.810Z,76.23
2019-01-14T05:10:25.016Z,75.24
2019-01-14T05:15:30.201Z,75.05
2019-01-14T05:20:35.384Z,75.59
2019-01-14T05:25:40.396Z,75.38
2019-01-14T05:30:45.723Z,75.32
2019-01-14T05:35:50.840Z,75.58
2019-01-14T05:40:55.916Z,76.14
2019-01-14T05:46:00.969Z,76.56
2019-01-14T05:51:06.022Z,76.89
2019-01-14T05:56:11.073Z,77.22
2019-01-14T06:01:16.069Z,77.64
2019-01-14T06:06:21.084Z,77.24
2019-01-14T06:11:26.216Z,77.42
2019-01-14T06:16:32.257Z,78.31
2019-01-14T06:21:37.238Z,78.03
2019-01-14T06:26:42.714Z,78.49
2019-01-14T06:31:47.668Z,78.74
2019-01-14T06:36:52.634Z,78.79
2019-01-14T06:41:57.788Z,79.35
2019-01-14T06:47:03.152Z,78.87
2019-01-14T06:52:08.282Z,78.66
2019-01-14T06:57:13.546Z,78.00
2019-01-14T07:02:18.666Z,77.35
2019-01-14T07:07:23.662Z,76.77
2019-01-14T07:12:30.631Z,75.81
2019-01-14T07:17:37.246Z,74.37
2019-01-14T07:22:42.325Z,74.07
2019-01-14T07:28:00.269Z,72.41
2019-01-14T07:33:09.770Z,73.36
2019-01-14T07:38:15.322Z,73.30
2019-01-14T07:43:20.834Z,74.59
2019-01-14T07:48:30.391Z,75.38
2019-01-14T07:53:40.472Z,75.29
2019-01-14T07:58:48.910Z,73.64
2019-01-14T08:03:54.642Z,74.24
2019-01-14T08:09:03.130Z,73.16
2019-01-14T08:14:10.794Z,72.96
2019-01-14T08:19:16.247Z,72.12
2019-01-14T08:24:26.268Z,71.56
2019-01-14T08:29:33.413Z,71.11
2019-01-14T08:34:38.935Z,70.02
2019-01-14T08:39:52.186Z,70.13
2019-01-14T08:45:01.133Z,71.04
2019-01-14T08:50:09.112Z,72.48
2019-01-14T08:55:14.435Z,73.98
2019-01-14T09:00:21.645Z,74.44
2019-01-14T09:05:26.800Z,74.49
2019-01-14T09:10:31.859Z,74.92
2019-01-14T09:15:47.422Z,76.37
2019-01-14T09:20:45.214Z,78.60
2019-01-14T09:25:53.910Z,80.97
2019-01-14T09:30:57.067Z,81.10
2019-01-14T09:36:02.204Z,80.76
2019-01-14T09:41:07.470Z,80.01
2019-01-14T09:46:12.583Z,79.66
2019-01-14T09:51:17.714Z,79.68
2019-01-14T09:56:22.823Z,78.87
2019-01-14T10:01:28.039Z,78.46
2019-01-14T10:06:34.598Z,76.38
2019-01-14T10:11:39.810Z,79.55
2019-01-14T10:16:45.456Z,83.45
2019-01-14T10:21:50.817Z,84.96
2019-01-14T10:26:55.945Z,85.20
2019-01-14T10:32:01.531Z,84.80
2019-01-14T10:37:06.905Z,81.46
2019-01-14T10:42:12.074Z,79.50
2019-01-14T10:47:21.186Z,76.87
2019-01-14T10:52:26.335Z,75.25
2019-01-14T10:57:31.452Z,74.68
2019-01-14T11:02:36.742Z,73.65
2019-01-14T11:07:42.304Z,71.03
2019-01-14T11:12:47.410Z,72.58
2019-01-14T11:17:52.620Z,71.98
2019-01-14T11:22:58.130Z,73.28
2019-01-14T11:28:03.230Z,72.67
2019-01-14T11:33:08.892Z,72.32
2019-01-14T11:38:39.265Z,73.00
2019-01-14T11:43:44.543Z,74.21
2019-01-14T11:48:49.619Z,73.17
2019-01-14T11:53:54.672Z,73.26
2019-01-14T11:58:59.890Z,73.18
2019-01-14T12:04:05.062Z,73.24
2019-01-14T12:09:12.612Z,73.58
2019-01-14T12:14:17.836Z,71.52
2019-01-14T12:19:22.882Z,73.35
2019-01-14T12:24:28.022Z,73.67
2019-01-14T12:29:33.167Z,74.57
2019-01-14T12:34:38.242Z,74.89
2019-01-14T12:39:43.506Z,73.44
2019-01-14T12:44:48.823Z,84.29
2019-01-14T12:49:58.853Z,90.10
2019-01-14T12:55:18.392Z,92.15
2019-01-14T13:00:25.664Z,92.62
2019-01-14T13:05:31.070Z,93.84
2019-01-14T13:10:36.548Z,92.43
2019-01-14T13:15:46.735Z,91.78
2019-01-14T13:20:52.168Z,88.04
2019-01-14T13:25:57.852Z,82.44
2019-01-14T13:31:02.963Z,80.83
2019-01-14T13:36:10.118Z,80.39
2019-01-14T13:41:21.393Z,81.16
2019-01-14T13:46:31.975Z,88.93
2019-01-14T13:51:37.703Z,94.35
2019-01-14T13:56:43.022Z,95.43
2019-01-14T14:01:48.116Z,95.45
2019-01-14T14:06:56.494Z,97.96
2019-01-14T14:12:01.799Z,98.35
2019-01-14T14:17:09.056Z,99.60
2019-01-14T14:22:14.231Z,100.00
2019-01-14T14:27:21.919Z,100.00
2019-01-14T14:32:29.405Z,100.00
2019-01-14T14:37:35.046Z,100.00
2019-01-14T14:42:40.181Z,100.00
2019-01-14T14:47:50.310Z,100.00
2019-01-14T14:52:57.996Z,98.08
2019-01-14T14:58:03.485Z,95.82
2019-01-14T15:03:08.752Z,94.51
2019-01-14T15:08:13.866Z,93.61
2019-01-14T15:13:19.115Z,93.37
2019-01-14T15:18:24.408Z,92.53
2019-01-14T15:23:29.586Z,91.28
2019-01-14T15:28:34.791Z,90.85
2019-01-14T15:33:44.228Z,90.66
2019-01-14T15:38:52.646Z,89.16
2019-01-14T15:44:07.975Z,88.43
2019-01-14T15:49:18.543Z,86.59
2019-01-14T15:54:28.513Z,86.47
2019-01-14T15:59:38.401Z,86.29
2019-01-14T16:04:46.444Z,85.35
2019-01-14T16:09:57.348Z,85.46
2019-01-14T16:15:02.654Z,85.89
2019-01-14T16:20:17.421Z,86.01
2019-01-14T16:25:22.654Z,86.12
2019-01-14T16:30:32.600Z,86.17
2019-01-14T16:35:41.587Z,85.81
2019-01-14T16:40:48.581Z,86.37
2019-01-14T16:46:00.679Z,86.60
2019-01-14T16:51:07.120Z,86.86
2019-01-14T16:56:19.291Z,86.12
2019-01-14T17:01:33.207Z,85.35
2019-01-14T17:06:47.967Z,85.42
2019-01-14T17:11:55.208Z,85.43
2019-01-14T17:17:01.749Z,85.53
2019-01-14T17:22:07.814Z,86.13
2019-01-14T17:27:13.233Z,86.08
2019-01-14T17:32:20.927Z,85.93
2019-01-14T17:37:27.823Z,86.32
2019-01-14T17:42:33.230Z,86.27
2019-01-14T17:47:41.245Z,86.18
2019-01-14T17:52:47.506Z,85.96
2019-01-14T17:57:53.239Z,85.79
2019-01-14T18:02:58.611Z,85.92
2019-01-14T18:08:05.443Z,85.82
2019-01-14T18:13:10.721Z,85.92
2019-01-14T18:18:18.751Z,86.37
2019-01-14T18:23:30.698Z,86.78
2019-01-14T18:28:36.028Z,87.44
2019-01-14T18:33:41.565Z,87.75
2019-01-14T18:38:47.090Z,87.96
2019-01-14T18:43:52.334Z,87.69
2019-01-14T18:49:01.140Z,87.80
2019-01-14T18:54:07.779Z,87.77
2019-01-14T18:59:14.128Z,88.09
2019-01-14T19:04:21.791Z,87.93
2019-01-14T19:09:33.012Z,87.84
2019-01-14T19:14:39.698Z,87.83
2019-01-14T19:19:46.935Z,87.66
2019-01-14T19:24:54.358Z,87.11
2019-01-14T19:29:59.323Z,86.89
2019-01-14T19:35:05.650Z,86.29
2019-01-14T19:40:14.535Z,85.89
2019-01-14T19:45:21.926Z,85.84
2019-01-14T19:50:35.119Z,85.44
2019-01-14T19:55:42.955Z,85.28
2019-01-14T20:00:48.545Z,85.43
2019-01-14T20:05:54.305Z,85.54
2019-01-14T20:11:14.444Z,85.23
2019-01-14T20:16:19.005Z,84.49
2019-01-14T20:21:24.355Z,84.78
2019-01-14T20:26:29.766Z,84.65
2019-01-14T20:31:44.656Z,84.23
2019-01-14T20:36:55.711Z,83.98
2019-01-14T20:42:01.723Z,83.77
2019-01-14T20:47:09.023Z,83.41
2019-01-14T20:52:14.538Z,83.11
2019-01-14T20:57:19.785Z,83.29
2019-01-14T21:02:24.897Z,82.54
2019-01-14T21:07:30.880Z,82.94
2019-01-14T21:12:39.259Z,83.59
2019-01-14T21:17:46.047Z,83.91
2019-01-14T21:22:56.246Z,84.45
2019-01-14T21:28:08.902Z,84.42
2019-01-14T21:33:23.845Z,83.96
2019-01-14T21:38:32.206Z,83.57
2019-01-14T21:43:43.926Z,83.41
2019-01-14T21:48:51.341Z,82.86
2019-01-14T21:53:56.850Z,82.94
2019-01-14T21:59:08.794Z,82.65
2019-01-14T22:04:18.319Z,82.84
2019-01-14T22:09:25.578Z,83.12
2019-01-14T22:14:31.021Z,83.55
2019-01-14T22:19:36.197Z,83.91
2019-01-14T22:24:42.893Z,84.04
2019-01-14T22:29:49.091Z,84.53
2019-01-14T22:34:55.169Z,85.18
2019-01-14T22:40:00.737Z,85.92
2019-01-14T22:45:06.673Z,86.67
2019-01-14T22:50:13.761Z,87.72
2019-01-14T22:55:19.201Z,88.43
2019-01-14T23:00:46.968Z,89.30
2019-01-14T23:05:53.895Z,89.43
2019-01-14T23:10:59.259Z,90.03
2019-01-14T23:16:05.217Z,90.14
2019-01-14T23:21:10.406Z,89.49
2019-01-14T23:26:15.544Z,89.84
2019-01-14T23:31:20.629Z,89.06
2019-01-14T23:36:26.001Z,88.83
2019-01-14T23:41:30.974Z,88.91
2019-01-14T23:46:36.023Z,88.83
2019-01-14T23:51:41.003Z,89.12
2019-01-14T23:56:46.029Z,89.08
